Time;durP1;ratioP1;P1;durP2;ratioP2;P2;SDS_P1;SDS_P2;PMS_P1;PMS_P2;Temp;Humidity;BMP_temperature;BMP_pressure;BME280_temperature;BME280_humidity;BME280_pressure;Samples;Min_cycle;Max_cycle;Signal;HPM_P1;HPM_P2
2021/01/18 00:01:59;;;;;;;;;;;;;;;-0.55;100.00;96833.34;5006682;28;19929;-50
2021/01/18 00:04:27;;;;;;;43.13;19.23;;;;;;;-0.52;100.00;96830.63;5001433;28;19922;-48
2021/01/18 00:06:54;;;;;;;59.22;32.33;;;;;;;-0.45;100.00;96832.03;5000914;28;20495;-48
2021/01/18 00:09:22;;;;;;;58.63;33.63;;;;;;;-0.42;100.00;96828.47;5000645;28;20418;-47
2021/01/18 00:11:49;;;;;;;58.30;31.02;;;;;;;-0.41;100.00;96828.41;5002576;28;20493;-46
2021/01/18 00:14:16;;;;;;;51.97;30.02;;;;;;;-0.31;100.00;96828.81;5001585;28;20894;-46
2021/01/18 00:16:43;;;;;;;47.47;26.95;;;;;;;-0.30;100.00;96831.34;4999584;28;20432;-48
2021/01/18 00:19:11;;;;;;;48.92;29.25;;;;;;;-0.23;100.00;96828.50;5009946;28;20419;-49
2021/01/18 00:21:45;;;;;;;35.47;18.58;;;;;;;-0.20;100.00;96828.38;4999642;28;20128;-47
2021/01/18 00:24:12;;;;;;;33.15;18.05;;;;;;;-0.18;100.00;96821.34;5003333;28;20065;-49
2021/01/18 00:26:39;;;;;;;35.53;17.90;;;;;;;-0.16;100.00;96825.56;5008621;28;20038;-48
2021/01/18 00:29:06;;;;;;;32.00;16.15;;;;;;;-0.11;100.00;96823.56;5001533;28;20034;-47
2021/01/18 00:31:33;;;;;;;28.00;14.32;;;;;;;-0.09;100.00;96826.13;5000036;28;20447;-50
2021/01/18 00:34:01;;;;;;;28.50;15.32;;;;;;;-0.07;100.00;96819.09;5005026;28;20042;-48
2021/01/18 00:36:28;;;;;;;30.30;14.88;;;;;;;0.00;100.00;96815.31;5000042;28;20089;-49
2021/01/18 00:38:57;;;;;;;15.10;8.00;;;;;;;-0.04;100.00;96824.13;5006344;28;20400;-50
2021/01/18 00:41:24;;;;;;;25.42;13.32;;;;;;;0.01;100.00;96822.19;5017602;28;20050;-50
2021/01/18 00:43:50;;;;;;;;;;;;;;;0.04;100.00;96821.22;5005205;28;20050;-47
2021/01/18 00:46:17;;;;;;;;;;;;;;;0.07;100.00;96821.03;5012359;28;19917;-49
2021/01/18 00:48:45;;;;;;;20.77;11.32;;;;;;;0.11;100.00;96823.44;5008654;28;20482;-50
2021/01/18 00:51:12;;;;;;;21.88;12.25;;;;;;;0.19;100.00;96823.91;4982587;28;20050;-48
2021/01/18 00:53:39;;;;;;;17.48;10.57;;;;;;;0.21;100.00;96832.47;5005837;28;20041;-47
2021/01/18 00:56:07;;;;;;;20.02;12.45;;;;;;;0.30;100.00;96817.38;4998133;28;20057;-48
2021/01/18 00:58:42;;;;;;;24.48;14.40;;;;;;;0.28;100.00;96825.25;5005713;28;20050;-49
2021/01/18 01:01:33;;;;;;;17.88;10.77;;;;;;;0.33;100.00;96837.97;5000466;28;20103;-46
2021/01/18 01:04:02;;;;;;;19.90;12.50;;;;;;;0.37;100.00;96834.31;5041356;28;20140;-52
2021/01/18 01:06:33;;;;;;;29.55;20.27;;;;;;;0.41;100.00;96825.47;5021224;28;20415;-49
2021/01/18 01:09:00;;;;;;;27.70;19.25;;;;;;;0.44;100.00;96827.94;5024949;28;20413;-51
2021/01/18 01:11:28;;;;;;;29.05;19.73;;;;;;;0.51;100.00;96844.88;5002831;28;20888;-48
2021/01/18 01:13:55;;;;;;;23.88;17.98;;;;;;;0.55;100.00;96833.47;5012256;28;20420;-48
2021/01/18 01:16:22;;;;;;;21.95;16.45;;;;;;;0.59;100.00;96827.22;5022238;28;20431;-49
2021/01/18 01:18:50;;;;;;;23.52;17.45;;;;;;;0.64;100.00;96833.00;5021947;28;20415;-47
2021/01/18 01:21:17;;;;;;;21.27;16.02;;;;;;;0.68;100.00;96831.94;5006318;28;20470;-48
2021/01/18 01:23:45;;;;;;;21.85;15.95;;;;;;;0.69;100.00;96833.63;5004254;28;20766;-45
2021/01/18 01:26:12;;;;;;;21.92;15.55;;;;;;;0.70;100.00;96834.47;5000086;28;20446;-47
2021/01/18 01:28:40;;;;;;;20.80;15.88;;;;;;;0.70;100.00;96845.69;5008278;28;20508;-50
2021/01/18 01:31:07;;;;;;;19.40;13.80;;;;;;;0.70;100.00;96831.88;5022339;28;20430;-50
2021/01/18 01:33:34;;;;;;;17.92;13.75;;;;;;;0.59;100.00;96828.97;5021560;28;20453;-48
2021/01/18 01:36:02;;;;;;;16.90;12.30;;;;;;;0.52;100.00;96836.19;5029234;28;20422;-52
2021/01/18 01:39:19;;;;;;;16.77;13.00;;;;;;;0.57;100.00;96823.00;5022382;28;21039;-48
2021/01/18 01:42:56;;;;;;;17.98;12.05;;;;;;;0.61;100.00;96832.31;5016250;28;20502;-47
2021/01/18 01:45:24;;;;;;;17.95;13.25;;;;;;;0.68;100.00;96831.94;5019811;28;20911;-48
2021/01/18 01:47:53;;;;;;;16.80;12.47;;;;;;;0.70;100.00;96840.50;4987927;28;20426;-49
2021/01/18 01:50:22;;;;;;;18.52;13.07;;;;;;;0.75;100.00;96845.44;5008068;28;20424;-46
2021/01/18 01:52:52;;;;;;;15.23;11.18;;;;;;;0.71;100.00;96836.13;5018545;28;20592;-47
2021/01/18 01:55:24;;;;;;;17.05;13.25;;;;;;;0.76;100.00;96841.09;5007433;28;20418;-48
2021/01/18 01:57:53;;;;;;;16.33;13.00;;;;;;;0.79;100.00;96835.75;5006504;28;20453;-45
2021/01/18 02:00:20;;;;;;;16.65;12.60;;;;;;;0.78;100.00;96836.69;5021034;28;20885;-47
2021/01/18 02:02:49;;;;;;;17.17;12.43;;;;;;;0.75;100.00;96829.03;5025474;28;20475;-51
2021/01/18 02:05:17;;;;;;;16.27;11.85;;;;;;;0.80;100.00;96840.06;5025132;28;20418;-51
2021/01/18 02:07:44;;;;;;;15.10;10.52;;;;;;;0.77;100.00;96837.59;5007001;28;20832;-48
2021/01/18 02:10:12;;;;;;;16.48;11.95;;;;;;;0.77;100.00;96843.63;4999315;28;20905;-48
2021/01/18 02:12:39;;;;;;;15.25;11.45;;;;;;;0.80;100.00;96842.66;5006507;28;20438;-46
2021/01/18 02:15:11;;;;;;;14.35;10.77;;;;;;;0.83;100.00;96834.72;5025104;28;20817;-48
2021/01/18 02:17:48;;;;;;;15.75;10.80;;;;;;;0.84;100.00;96834.63;5024349;28;20771;-47
2021/01/18 02:20:43;;;;;;;14.68;10.27;;;;;;;0.84;100.00;96834.63;5016295;28;20785;-48
2021/01/18 02:23:36;;;;;;;14.50;10.10;;;;;;;0.86;100.00;96838.00;4994897;28;20425;-46
2021/01/18 02:26:05;;;;;;;16.48;11.13;;;;;;;0.88;100.00;96837.91;5002805;28;20756;-53
2021/01/18 02:28:53;;;;;;;14.33;10.10;;;;;;;0.84;100.00;96839.81;5018633;28;20512;-50
2021/01/18 02:31:41;;;;;;;14.90;10.60;;;;;;;0.86;100.00;96850.09;5009216;28;20416;-50
2021/01/18 02:34:40;;;;;;;15.30;11.35;;;;;;;0.90;100.00;96854.25;5002794;28;20444;-50
2021/01/18 02:37:21;;;;;;;16.10;11.53;;;;;;;0.89;100.00;96850.78;4999503;28;20415;-50
2021/01/18 02:39:53;;;;;;;14.50;10.15;;;;;;;0.95;100.00;96855.69;5019669;28;20885;-49
2021/01/18 02:42:24;;;;;;;15.68;10.95;;;;;;;0.95;100.00;96836.69;5024873;28;20411;-50
2021/01/18 02:44:51;;;;;;;15.43;11.13;;;;;;;0.91;100.00;96848.13;5029462;28;20411;-47
2021/01/18 02:47:20;;;;;;;17.25;11.00;;;;;;;0.93;100.00;96847.16;5005557;28;21010;-47
2021/01/18 02:49:50;;;;;;;17.02;11.77;;;;;;;0.98;100.00;96851.28;5018656;28;20436;-48
2021/01/18 02:52:18;;;;;;;15.07;10.43;;;;;;;0.93;100.00;96854.94;5010342;28;20962;-46
2021/01/18 02:54:45;;;;;;;16.67;11.95;;;;;;;0.95;100.00;96854.84;4998857;28;20510;-47
2021/01/18 02:57:14;;;;;;;16.48;10.77;;;;;;;1.04;100.00;96864.78;5002968;28;20420;-46
2021/01/18 02:59:42;;;;;;;13.27;8.70;;;;;;;1.04;100.00;96861.38;5011715;28;20395;-49
2021/01/18 03:02:22;;;;;;;16.20;10.87;;;;;;;1.07;100.00;96856.84;4993862;28;20503;-47
2021/01/18 03:04:57;;;;;;;17.27;12.25;;;;;;;1.12;100.00;96854.03;4984373;28;20475;-48
2021/01/18 03:07:31;;;;;;;15.00;10.60;;;;;;;1.07;100.00;96854.25;5016232;28;20774;-46
2021/01/18 03:10:00;;;;;;;17.23;11.82;;;;;;;1.14;100.00;96858.22;5009852;28;20417;-46
2021/01/18 03:12:30;;;;;;;17.20;12.13;;;;;;;1.10;100.00;96855.84;4996279;28;20903;-48
2021/01/18 03:14:58;;;;;;;17.00;11.80;;;;;;;1.08;100.00;96857.69;5006381;28;20451;-46
2021/01/18 03:17:27;;;;;;;17.37;11.80;;;;;;;1.02;100.00;96853.63;5001302;28;20543;-46
2021/01/18 03:19:55;;;;;;;14.38;10.02;;;;;;;1.04;100.00;96850.97;5016752;28;20453;-49
2021/01/18 03:22:23;;;;;;;15.70;11.55;;;;;;;0.98;100.00;96856.47;5009398;28;20435;-51
2021/01/18 03:24:53;;;;;;;16.38;12.10;;;;;;;1.02;100.00;96860.59;4998603;28;20406;-50
2021/01/18 03:27:20;;;;;;;15.95;11.50;;;;;;;1.05;100.00;96856.09;4999918;28;20435;-48
2021/01/18 03:29:49;;;;;;;16.98;12.02;;;;;;;1.06;100.00;96860.34;5008530;28;20423;-46
2021/01/18 03:32:16;;;;;;;13.60;10.13;;;;;;;1.08;100.00;96860.28;5001764;28;20425;-49
2021/01/18 03:34:44;;;;;;;16.60;10.93;;;;;;;1.03;100.00;96859.66;5003471;28;20428;-46
2021/01/18 03:37:11;;;;;;;15.48;11.70;;;;;;;1.06;100.00;96867.31;5003232;28;20899;-48
2021/01/18 03:39:38;;;;;;;15.37;10.30;;;;;;;1.03;100.00;96863.09;5006602;28;20420;-50
2021/01/18 03:42:06;;;;;;;15.65;10.63;;;;;;;1.00;100.00;96859.81;5006918;28;20405;-50
2021/01/18 03:44:35;;;;;;;14.80;10.32;;;;;;;1.05;100.00;96852.66;5024075;28;20415;-46
2021/01/18 03:47:03;;;;;;;13.35;9.25;;;;;;;1.04;100.00;96853.56;5023288;28;20427;-49
2021/01/18 03:49:30;;;;;;;11.48;7.97;;;;;;;1.03;100.00;96857.91;5016793;28;20880;-47
2021/01/18 03:51:57;;;;;;;13.38;9.40;;;;;;;1.05;100.00;96868.22;5021527;28;20415;-46
2021/01/18 03:54:24;;;;;;;14.95;9.27;;;;;;;1.06;100.00;96865.53;5017983;28;20506;-46
2021/01/18 03:56:51;;;;;;;13.23;9.20;;;;;;;1.09;100.00;96860.19;4996216;28;20405;-47
2021/01/18 03:59:19;;;;;;;12.55;8.43;;;;;;;1.11;100.00;96863.56;5013514;28;20463;-47
2021/01/18 04:01:46;;;;;;;12.57;8.98;;;;;;;1.12;100.00;96862.66;5014615;28;20417;-49
2021/01/18 04:04:13;;;;;;;13.98;8.35;;;;;;;1.13;100.00;96860.88;5012941;28;20413;-46
2021/01/18 04:06:41;;;;;;;14.18;8.50;;;;;;;1.08;100.00;96855.09;5007983;28;20453;-47
2021/01/18 04:09:08;;;;;;;12.77;8.68;;;;;;;1.08;100.00;96863.72;5014824;28;20421;-46
2021/01/18 04:11:35;;;;;;;12.98;9.05;;;;;;;1.08;100.00;96860.28;5020431;28;20420;-48
2021/01/18 04:14:02;;;;;;;13.02;8.52;;;;;;;1.09;100.00;96867.16;5000367;28;20684;-47
2021/01/18 04:16:29;;;;;;;14.52;8.73;;;;;;;1.05;100.00;96868.22;5003303;28;20919;-46
2021/01/18 04:18:57;;;;;;;11.20;8.07;;;;;;;1.10;100.00;96874.03;5011870;28;20427;-46
2021/01/18 04:21:24;;;;;;;13.50;9.03;;;;;;;1.13;100.00;96869.50;5000882;28;20510;-46
2021/01/18 04:23:51;;;;;;;13.25;8.70;;;;;;;1.11;100.00;96876.56;5002892;28;20419;-46
2021/01/18 04:26:18;;;;;;;12.33;7.90;;;;;;;1.09;100.00;96861.97;5016336;28;20453;-47
2021/01/18 04:28:45;;;;;;;12.95;8.02;;;;;;;1.15;100.00;96875.47;5016724;28;20998;-48
2021/01/18 04:31:12;;;;;;;12.10;8.63;;;;;;;1.14;100.00;96876.41;5014781;28;20432;-47
2021/01/18 04:33:40;;;;;;;10.57;7.18;;;;;;;1.08;100.00;96868.09;5002765;28;20961;-46
2021/01/18 04:36:07;;;;;;;13.57;8.68;;;;;;;1.13;100.00;96872.09;4992829;28;20424;-47
2021/01/18 04:38:34;;;;;;;12.23;7.43;;;;;;;1.11;100.00;96867.94;5002352;28;20424;-47
2021/01/18 04:41:02;;;;;;;12.88;7.72;;;;;;;1.13;100.00;96872.09;4992660;28;20411;-48
2021/01/18 04:43:28;;;;;;;9.48;7.15;;;;;;;1.13;100.00;96866.06;5012397;28;20473;-46
2021/01/18 04:45:56;;;;;;;11.50;7.90;;;;;;;1.17;100.00;96870.19;5019360;28;20399;-47
2021/01/18 04:48:24;;;;;;;10.23;6.95;;;;;;;1.14;100.00;96875.56;5018453;28;20423;-47
2021/01/18 04:50:53;;;;;;;12.00;8.13;;;;;;;1.21;100.00;96868.31;4995146;28;20428;-47
2021/01/18 04:53:24;;;;;;;11.95;7.68;;;;;;;1.20;100.00;96870.03;5000512;28;20495;-47
2021/01/18 04:56:04;;;;;;;10.75;7.32;;;;;;;1.19;100.00;96876.16;5005135;28;20768;-51
2021/01/18 04:58:53;;;;;;;14.02;8.48;;;;;;;1.17;100.00;96867.59;5015345;28;20497;-46
2021/01/18 05:01:27;;;;;;;11.05;6.65;;;;;;;1.12;100.00;96888.63;5021693;28;20415;-49
2021/01/18 05:04:03;;;;;;;12.45;7.50;;;;;;;1.10;100.00;96869.69;5023641;28;20430;-46
2021/01/18 05:06:45;;;;;;;11.18;7.47;;;;;;;1.14;100.00;96872.97;5035406;28;20411;-48
2021/01/18 05:09:26;;;;;;;13.10;8.32;;;;;;;1.13;100.00;96882.50;5020351;28;20951;-47
2021/01/18 05:11:53;;;;;;;9.95;6.88;;;;;;;1.14;100.00;96878.16;5001770;28;20509;-48
2021/01/18 05:14:21;;;;;;;11.65;6.80;;;;;;;1.13;100.00;96872.09;5018982;28;20419;-49
2021/01/18 05:16:52;;;;;;;14.13;8.10;;;;;;;1.13;100.00;96877.31;5008872;28;20433;-47
2021/01/18 05:19:20;;;;;;;15.38;8.73;;;;;;;1.15;100.00;96875.47;5011538;28;20418;-48
2021/01/18 05:21:48;;;;;;;14.15;8.35;;;;;;;1.14;100.00;96875.56;4988773;28;20893;-48
2021/01/18 05:24:17;;;;;;;10.77;7.33;;;;;;;1.10;100.00;96882.69;4998314;28;20977;-51
2021/01/18 05:27:01;;;;;;;13.55;7.70;;;;;;;1.06;100.00;96885.47;4990838;28;20905;-54
2021/01/18 05:29:31;;;;;;;13.82;8.85;;;;;;;1.00;100.00;96897.03;5000309;28;20427;-46
2021/01/18 05:31:58;;;;;;;14.32;8.85;;;;;;;1.03;100.00;96890.81;4997943;28;20421;-49
2021/01/18 05:34:28;;;;;;;13.98;8.90;;;;;;;0.91;100.00;96893.13;4990246;28;20906;-47
2021/01/18 05:36:56;;;;;;;14.93;9.27;;;;;;;0.92;100.00;96889.59;5003903;28;20403;-47
2021/01/18 05:39:24;;;;;;;15.30;8.60;;;;;;;0.93;100.00;96898.25;5021570;28;20414;-49
2021/01/18 05:41:52;;;;;;;14.60;9.15;;;;;;;0.98;100.00;96900.63;5033441;28;20419;-47
2021/01/18 05:44:20;;;;;;;15.15;9.60;;;;;;;1.02;100.00;96908.16;5016699;28;20481;-47
2021/01/18 05:46:50;;;;;;;17.02;8.90;;;;;;;1.03;100.00;96899.44;5019815;28;20427;-49
2021/01/18 05:49:19;;;;;;;13.82;9.00;;;;;;;0.98;100.00;96911.84;5003274;28;20420;-46
2021/01/18 05:51:49;;;;;;;15.95;9.43;;;;;;;1.01;100.00;96909.09;5007741;28;20407;-47
2021/01/18 05:54:22;;;;;;;15.40;8.68;;;;;;;1.02;100.00;96902.13;4977867;28;20432;-47
2021/01/18 05:56:52;;;;;;;15.00;8.30;;;;;;;1.00;100.00;96906.56;5024592;28;20432;-54
2021/01/18 05:59:20;;;;;;;10.02;6.10;;;;;;;0.98;100.00;96909.25;5016245;28;20422;-51
2021/01/18 06:01:49;;;;;;;16.50;8.93;;;;;;;1.04;100.00;96908.94;5007134;28;20448;-48
2021/01/18 06:04:17;;;;;;;15.35;8.65;;;;;;;1.06;100.00;96911.44;5010636;28;20442;-47
2021/01/18 06:06:54;;;;;;;13.82;8.80;;;;;;;0.98;100.00;96904.03;5017919;28;20407;-46
2021/01/18 06:09:24;;;;;;;14.35;8.25;;;;;;;0.98;100.00;96908.41;5007055;28;20564;-47
2021/01/18 06:11:51;;;;;;;13.38;8.50;;;;;;;1.01;100.00;96910.84;5003735;28;20417;-49
2021/01/18 06:14:19;;;;;;;15.70;8.30;;;;;;;0.92;100.00;96912.13;5009794;28;20971;-48
2021/01/18 06:16:48;;;;;;;12.57;8.23;;;;;;;0.92;100.00;96905.16;5020997;28;20731;-47
2021/01/18 06:19:21;;;;;;;16.40;9.52;;;;;;;0.93;100.00;96904.28;5017291;28;20421;-47
2021/01/18 06:21:48;;;;;;;14.67;8.83;;;;;;;0.92;100.00;96904.34;5001931;28;21096;-49
2021/01/18 06:24:20;;;;;;;14.88;9.15;;;;;;;0.92;100.00;96910.38;5022714;28;20422;-46
2021/01/18 06:26:48;;;;;;;13.23;7.63;;;;;;;0.90;100.00;96913.97;5010089;28;20967;-47
2021/01/18 06:29:38;;;;;;;15.90;8.75;;;;;;;0.89;100.00;96914.88;4982986;28;20498;-47
2021/01/18 06:32:06;;;;;;;16.02;9.55;;;;;;;0.83;100.00;96908.22;5002541;28;20425;-48
2021/01/18 06:35:24;;;;;;;15.70;8.73;;;;;;;0.87;100.00;96903.72;5017591;28;20530;-51
2021/01/18 06:37:56;;;;;;;14.75;9.02;;;;;;;0.86;100.00;96913.28;5018980;28;20424;-48
2021/01/18 06:40:28;;;;;;;15.07;8.88;;;;;;;0.82;100.00;96924.69;5010964;28;20903;-46
2021/01/18 06:42:57;;;;;;;17.75;10.20;;;;;;;0.89;100.00;96920.06;5006698;28;20423;-49
2021/01/18 06:45:35;;;;;;;13.68;9.13;;;;;;;0.88;100.00;96927.00;5018094;28;20490;-50
2021/01/18 06:48:04;;;;;;;14.43;8.60;;;;;;;0.95;100.00;96930.16;4992672;28;20409;-46
2021/01/18 06:50:34;;;;;;;15.18;8.45;;;;;;;0.94;100.00;96929.31;5024070;28;20422;-50
2021/01/18 06:53:15;;;;;;;14.93;9.23;;;;;;;1.01;100.00;96939.41;5010005;28;20425;-49
2021/01/18 06:56:03;;;;;;;13.68;8.07;;;;;;;0.95;100.00;96931.00;4998864;28;20508;-50
2021/01/18 06:58:41;;;;;;;14.48;8.10;;;;;;;0.99;100.00;96936.88;5010754;28;20415;-52
2021/01/18 07:01:14;;;;;;;15.15;8.90;;;;;;;0.99;100.00;96947.25;5007893;28;20417;-49
2021/01/18 07:03:43;;;;;;;11.90;7.28;;;;;;;1.02;100.00;96954.91;5009916;28;20530;-50
2021/01/18 07:06:24;;;;;;;15.48;8.95;;;;;;;1.04;100.00;96955.69;5014040;28;20418;-51
2021/01/18 07:08:52;;;;;;;14.45;8.80;;;;;;;1.06;100.00;96953.84;5008157;28;20883;-51
2021/01/18 07:11:20;;;;;;;14.52;8.25;;;;;;;1.06;100.00;96961.63;5012640;28;20419;-51
2021/01/18 07:13:50;;;;;;;13.57;8.75;;;;;;;1.07;100.00;96959.91;5020056;28;20526;-51
2021/01/18 07:16:18;;;;;;;13.65;8.93;;;;;;;1.09;100.00;96958.06;5002053;28;20422;-49
2021/01/18 07:18:52;;;;;;;13.82;8.02;;;;;;;1.11;100.00;96964.88;5002437;28;20425;-50
2021/01/18 07:21:20;;;;;;;13.02;8.50;;;;;;;1.13;100.00;96970.81;4982287;28;20777;-49
2021/01/18 07:23:55;;;;;;;14.35;8.25;;;;;;;1.12;100.00;96971.72;4989283;28;20446;-49
2021/01/18 07:26:50;;;;;;;13.80;8.80;;;;;;;1.17;100.00;96980.16;5008519;28;20625;-46
2021/01/18 07:29:20;;;;;;;14.80;7.80;;;;;;;1.23;100.00;96981.59;4993126;28;20818;-50
2021/01/18 07:31:50;;;;;;;12.55;8.15;;;;;;;1.14;100.00;96982.06;5007324;28;20514;-47
2021/01/18 07:34:19;;;;;;;13.13;8.77;;;;;;;1.21;100.00;96996.44;4991742;28;20502;-49
2021/01/18 07:36:46;;;;;;;12.50;7.80;;;;;;;1.16;100.00;96990.59;4992585;28;20480;-49
2021/01/18 07:39:31;;;;;;;12.90;8.20;;;;;;;1.21;100.00;96999.03;4999254;28;20413;-48
2021/01/18 07:41:59;;;;;;;13.60;8.10;;;;;;;1.21;100.00;97004.22;5023233;28;20413;-49
2021/01/18 07:44:35;;;;;;;12.60;8.13;;;;;;;1.15;100.00;96999.31;5047685;22;20437;-47
2021/01/18 07:47:04;;;;;;;15.18;8.82;;;;;;;1.15;100.00;97001.91;5040955;28;20561;-46
2021/01/18 07:49:37;;;;;;;15.20;9.38;;;;;;;1.14;100.00;97008.88;5044761;28;20425;-46
2021/01/18 07:52:29;;;;;;;14.13;8.90;;;;;;;1.10;100.00;97011.66;5035929;28;20423;-45
2021/01/18 07:55:00;;;;;;;15.73;9.45;;;;;;;1.04;100.00;97011.97;5026486;28;20731;-45
2021/01/18 07:57:39;;;;;;;14.15;8.20;;;;;;;1.04;100.00;97023.22;5042429;28;20834;-46
2021/01/18 08:00:32;;;;;;;17.10;9.55;;;;;;;1.01;100.00;97018.16;5037308;28;20768;-49
2021/01/18 08:03:26;;;;;;;15.18;8.65;;;;;;;0.98;100.00;97020.91;5015518;28;20423;-47
2021/01/18 08:06:15;;;;;;;17.23;10.88;;;;;;;1.04;100.00;97017.19;5033975;28;20431;-49
2021/01/18 08:08:44;;;;;;;17.37;10.57;;;;;;;0.94;100.00;97022.78;5030458;28;20827;-46
2021/01/18 08:11:16;;;;;;;17.48;10.30;;;;;;;0.98;100.00;97020.06;5027796;28;20505;-46
2021/01/18 08:13:55;;;;;;;19.17;10.55;;;;;;;1.10;100.00;97032.44;5029282;28;20427;-48
2021/01/18 08:16:28;;;;;;;21.58;11.93;;;;;;;1.05;100.00;97042.22;5028465;28;20410;-47
2021/01/18 08:19:08;;;;;;;20.75;11.20;;;;;;;1.07;100.00;97037.81;5039029;28;20761;-47
2021/01/18 08:21:46;;;;;;;20.50;11.90;;;;;;;1.12;100.00;97039.25;5039534;28;20571;-46
2021/01/18 08:24:51;;;;;;;19.48;11.50;;;;;;;1.10;100.00;97043.72;5035737;28;20428;-49
2021/01/18 08:28:09;;;;;;;23.20;12.40;;;;;;;1.09;100.00;97044.59;5039565;28;20417;-47
2021/01/18 08:30:41;;;;;;;16.58;10.23;;;;;;;1.14;100.00;97052.19;5019880;28;21017;-49
2021/01/18 08:33:17;;;;;;;18.23;10.77;;;;;;;1.20;100.00;97051.88;5022497;28;20411;-45
2021/01/18 08:35:49;;;;;;;20.77;11.83;;;;;;;1.30;100.00;97052.28;5024117;28;20455;-50
2021/01/18 08:38:25;;;;;;;21.95;11.50;;;;;;;1.49;100.00;97054.88;5029423;28;20508;-45
2021/01/18 08:40:54;;;;;;;21.35;10.43;;;;;;;1.52;100.00;97059.91;5034097;28;20409;-48
2021/01/18 08:43:22;;;;;;;18.30;9.83;;;;;;;1.55;100.00;97052.81;5043667;28;20555;-49
2021/01/18 08:45:50;;;;;;;16.55;10.23;;;;;;;1.62;100.00;97054.19;5049450;28;20407;-48
2021/01/18 08:48:21;;;;;;;12.90;7.13;;;;;;;1.58;100.00;97060.47;5038709;28;20420;-51
2021/01/18 08:50:52;;;;;;;14.38;9.00;;;;;;;1.64;100.00;97059.31;5040575;28;20420;-44
2021/01/18 08:53:24;;;;;;;14.70;7.13;;;;;;;1.46;100.00;97065.41;5042748;28;20427;-46
2021/01/18 08:55:52;;;;;;;12.57;7.57;;;;;;;1.53;100.00;97062.44;5036681;28;20516;-44
2021/01/18 08:58:36;;;;;;;16.02;8.65;;;;;;;1.57;100.00;97070.91;5042544;28;20463;-46
2021/01/18 09:01:08;;;;;;;17.13;7.78;;;;;;;1.51;100.00;97056.44;5034808;28;20414;-50
2021/01/18 09:03:37;;;;;;;12.32;6.65;;;;;;;1.48;100.00;97053.16;5040764;28;20775;-47
2021/01/18 09:06:04;;;;;;;12.98;7.40;;;;;;;1.62;100.00;97072.38;5042087;28;20621;-45
2021/01/18 09:08:32;;;;;;;13.43;8.02;;;;;;;1.75;100.00;97079.56;5035997;28;20918;-45
2021/01/18 09:11:00;;;;;;;14.77;8.23;;;;;;;1.75;100.00;97079.56;5036246;28;20423;-48
2021/01/18 09:13:46;;;;;;;15.65;8.70;;;;;;;1.90;100.00;97069.25;5028448;28;20434;-48
2021/01/18 09:16:13;;;;;;;11.80;7.20;;;;;;;1.79;100.00;97078.50;5035372;28;20469;-48
2021/01/18 09:18:41;;;;;;;15.35;8.38;;;;;;;1.88;100.00;97075.44;5037874;28;20483;-46
2021/01/18 09:21:08;;;;;;;15.35;8.05;;;;;;;2.03;100.00;97081.63;5041040;28;20441;-48
2021/01/18 09:23:36;;;;;;;15.90;9.10;;;;;;;2.18;100.00;97074.84;5041725;28;20620;-45
2021/01/18 09:26:06;;;;;;;14.43;8.57;;;;;;;2.12;100.00;97086.38;5037841;28;20406;-49
2021/01/18 09:28:33;;;;;;;11.60;7.20;;;;;;;1.80;100.00;97094.03;5041459;28;20492;-48
2021/01/18 09:31:08;;;;;;;14.18;7.57;;;;;;;1.84;100.00;97089.53;5037591;28;21370;-50
2021/01/18 09:33:36;;;;;;;14.57;8.35;;;;;;;2.04;100.00;97071.19;5038065;28;20409;-47
2021/01/18 09:36:06;;;;;;;13.38;8.30;;;;;;;2.06;100.00;97095.34;5040433;28;20417;-47
2021/01/18 09:38:34;;;;;;;14.15;7.90;;;;;;;2.20;100.00;97096.41;5044458;28;20425;-48
2021/01/18 09:41:01;;;;;;;15.57;8.75;;;;;;;2.29;100.00;97104.59;5038074;28;20418;-50
2021/01/18 09:43:29;;;;;;;13.77;7.93;;;;;;;2.38;100.00;97100.69;5042648;28;20418;-49
2021/01/18 09:45:57;;;;;;;13.90;6.82;;;;;;;2.27;100.00;97093.44;5042574;28;20756;-45
2021/01/18 09:48:25;;;;;;;12.23;7.28;;;;;;;2.33;100.00;97105.28;5037725;28;20584;-49
2021/01/18 09:51:00;;;;;;;14.40;7.32;;;;;;;2.36;100.00;97100.75;5045288;28;20833;-46
2021/01/18 09:53:29;;;;;;;12.57;7.00;;;;;;;2.36;100.00;97097.31;5045563;28;20414;-47
2021/01/18 09:56:00;;;;;;;12.65;7.28;;;;;;;2.35;100.00;97101.69;5043271;28;20449;-45
2021/01/18 09:58:36;;;;;;;11.43;7.10;;;;;;;2.49;100.00;97095.78;5043312;28;20529;-45
2021/01/18 10:01:08;;;;;;;13.52;7.82;;;;;;;2.41;100.00;97097.94;5039333;28;20506;-45
2021/01/18 10:03:38;;;;;;;13.05;6.60;;;;;;;2.21;100.00;97104.16;5024813;28;20403;-50
2021/01/18 10:06:07;;;;;;;10.05;5.80;;;;;;;2.06;100.00;97104.91;5028503;28;20037;-50
2021/01/18 10:08:36;;;;;;;12.27;4.93;;;;;;;2.26;100.00;97101.31;5044467;28;20065;-46
2021/01/18 10:11:04;;;;;;;7.40;4.10;;;;;;;2.16;100.00;97102.69;5041741;28;20535;-48
2021/01/18 10:13:32;;;;;;;7.38;4.10;;;;;;;2.18;100.00;97111.28;5042987;28;20045;-46
2021/01/18 10:16:07;;;;;;;9.23;4.82;;;;;;;2.04;100.00;97106.75;5046655;28;20045;-48
2021/01/18 10:18:38;;;;;;;8.18;4.65;;;;;;;2.02;100.00;97108.59;5038179;28;20042;-45
2021/01/18 10:21:06;;;;;;;9.80;4.85;;;;;;;1.75;100.00;97108.16;5046824;28;20091;-48
2021/01/18 10:23:34;;;;;;;8.05;4.68;;;;;;;1.79;100.00;97101.91;5047157;28;20041;-46
2021/01/18 10:26:21;;;;;;;9.77;5.78;;;;;;;1.79;100.00;97105.38;5041576;28;20046;-52
2021/01/18 10:28:52;;;;;;;10.63;5.65;;;;;;;1.79;100.00;97109.69;5043290;28;20049;-45
2021/01/18 10:31:19;;;;;;;7.78;4.47;;;;;;;1.46;100.00;97107.81;5047436;28;20513;-47
2021/01/18 10:34:08;;;;;;;9.80;4.13;;;;;;;1.60;100.00;97104.56;5037812;28;20131;-46
2021/01/18 10:36:36;;;;;;;11.45;5.15;;;;;;;1.52;100.00;97102.34;5043345;28;20045;-47
2021/01/18 10:39:04;;;;;;;12.10;6.15;;;;;;;1.65;100.00;97102.56;5048245;28;20468;-50
2021/01/18 10:41:33;;;;;;;11.48;4.57;;;;;;;1.65;100.00;97100.84;5044012;28;20037;-47
2021/01/18 10:44:21;;;;;;;13.85;6.05;;;;;;;1.48;100.00;97108.59;5036290;28;20037;-46
2021/01/18 10:46:51;;;;;;;12.07;5.00;;;;;;;1.63;100.00;97107.03;5048440;28;20037;-46
2021/01/18 10:49:26;;;;;;;11.30;4.78;;;;;;;1.72;100.00;97097.91;5039089;28;20037;-45
2021/01/18 10:52:05;;;;;;;7.97;3.67;;;;;;;1.77;100.00;97096.78;5045297;28;20049;-46
2021/01/18 10:54:34;;;;;;;10.25;5.28;;;;;;;2.08;100.00;97100.47;5044766;28;20103;-48
2021/01/18 10:57:02;;;;;;;8.45;3.97;;;;;;;1.92;100.00;97100.38;5044153;28;20056;-49
2021/01/18 10:59:30;;;;;;;4.78;2.90;;;;;;;1.71;100.00;97096.25;5039773;28;20087;-48
2021/01/18 11:02:08;;;;;;;13.38;4.45;;;;;;;1.80;100.00;97096.66;5044876;28;20047;-44
2021/01/18 11:04:36;;;;;;;10.65;4.72;;;;;;;1.89;100.00;97105.72;5039298;28;20041;-48
2021/01/18 11:07:04;;;;;;;9.60;4.35;;;;;;;1.95;100.00;97096.81;5045610;28;20049;-45
2021/01/18 11:09:32;;;;;;;9.15;4.50;;;;;;;1.88;100.00;97093.66;5046791;28;20124;-46
2021/01/18 11:12:02;;;;;;;7.57;4.30;;;;;;;1.98;100.00;97088.84;5044620;28;20505;-44
2021/01/18 11:14:30;;;;;;;12.60;5.50;;;;;;;2.22;100.00;97089.38;5044582;28;20562;-50
2021/01/18 11:17:02;;;;;;;8.57;5.18;;;;;;;2.43;100.00;97084.84;5044740;28;20047;-44
2021/01/18 11:19:30;;;;;;;8.45;4.47;;;;;;;2.49;100.00;97077.56;5041197;28;20095;-46
2021/01/18 11:21:57;;;;;;;13.65;5.38;;;;;;;2.68;100.00;97084.38;5041016;28;20119;-48
2021/01/18 11:24:24;;;;;;;10.43;4.55;;;;;;;2.55;100.00;97081.59;5047197;28;20056;-45
2021/01/18 11:26:52;;;;;;;9.48;4.40;;;;;;;2.17;100.00;97076.59;5046022;28;20428;-46
2021/01/18 11:29:20;;;;;;;10.35;4.03;;;;;;;2.34;100.00;97080.94;5043004;28;20680;-48
2021/01/18 11:31:48;;;;;;;8.82;4.78;;;;;;;2.59;100.00;97070.94;5042387;28;20045;-48
2021/01/18 11:34:16;;;;;;;9.68;4.60;;;;;;;2.44;100.00;97074.31;5045967;28;20125;-49
2021/01/18 11:36:43;;;;;;;11.93;5.43;;;;;;;2.33;100.00;97077.50;5038349;28;20048;-46
2021/01/18 11:39:12;;;;;;;10.02;4.75;;;;;;;2.34;100.00;97073.13;5038660;28;20041;-48
2021/01/18 11:41:39;;;;;;;11.45;6.13;;;;;;;2.16;100.00;97074.91;5048129;28;20415;-49
2021/01/18 11:44:07;;;;;;;11.57;4.95;;;;;;;2.37;100.00;97067.75;5046340;28;20090;-47
2021/01/18 11:46:35;;;;;;;10.55;4.85;;;;;;;2.18;100.00;97072.25;5048975;28;20041;-47